createdAt,value
2019-05-26T00:00:26.606Z,11.05
2019-05-26T00:02:56.369Z,7.72
2019-05-26T00:05:24.583Z,8.00
2019-05-26T00:07:52.777Z,7.92
2019-05-26T00:10:20.978Z,9.28
2019-05-26T00:12:49.168Z,7.90
2019-05-26T00:15:17.371Z,8.63
2019-05-26T00:17:45.565Z,10.32
2019-05-26T00:20:13.936Z,7.28
2019-05-26T00:22:42.127Z,8.60
2019-05-26T00:25:10.586Z,11.93
2019-05-26T00:27:38.776Z,9.15
2019-05-26T00:30:07.413Z,8.60
2019-05-26T00:32:37.712Z,9.53
2019-05-26T00:35:08.040Z,10.43
2019-05-26T00:40:08.453Z,8.45
2019-05-26T00:42:36.642Z,14.65
2019-05-26T00:45:07.911Z,9.85
2019-05-26T00:47:36.101Z,9.65
2019-05-26T00:50:06.052Z,11.97
2019-05-26T00:52:34.257Z,10.40
2019-05-26T00:55:02.493Z,7.58
2019-05-26T00:57:30.682Z,10.38
2019-05-26T00:59:58.892Z,6.83
2019-05-26T01:02:27.084Z,7.22
2019-05-26T01:04:55.295Z,9.05
2019-05-26T01:07:23.482Z,8.23
2019-05-26T01:09:51.678Z,9.18
2019-05-26T01:12:19.881Z,10.05
2019-05-26T01:14:48.646Z,11.57
2019-05-26T01:17:17.327Z,10.48
2019-05-26T01:19:45.525Z,12.35
2019-05-26T01:22:14.074Z,10.15
2019-05-26T01:24:42.937Z,10.98
2019-05-26T01:27:11.150Z,12.88
2019-05-26T01:29:39.345Z,11.35
2019-05-26T01:32:07.550Z,9.85
2019-05-26T01:34:36.410Z,9.93
2019-05-26T01:37:05.637Z,15.72
2019-05-26T01:39:33.833Z,11.10
2019-05-26T01:42:02.668Z,11.95
2019-05-26T01:44:30.856Z,10.18
2019-05-26T01:46:59.060Z,13.98
2019-05-26T01:49:28.022Z,14.38
2019-05-26T01:52:00.391Z,12.10
2019-05-26T01:54:28.592Z,12.93
2019-05-26T01:56:58.270Z,17.37
2019-05-26T01:59:27.695Z,11.85
2019-05-26T02:01:58.628Z,10.78
2019-05-26T02:04:25.809Z,12.75
2019-05-26T02:06:54.333Z,14.73
2019-05-26T02:09:22.531Z,12.73
2019-05-26T02:11:50.734Z,9.33
2019-05-26T02:14:18.926Z,11.88
2019-05-26T02:16:47.141Z,9.75
2019-05-26T02:19:16.891Z,13.72
2019-05-26T02:21:45.161Z,13.65
2019-05-26T02:24:13.352Z,12.40
2019-05-26T02:26:41.617Z,12.30
2019-05-26T02:29:09.809Z,12.15
2019-05-26T02:31:38.015Z,13.50
2019-05-26T02:34:06.218Z,11.60
2019-05-26T02:36:34.417Z,10.98
2019-05-26T02:39:03.670Z,13.98
2019-05-26T02:41:31.956Z,13.45
2019-05-26T02:44:00.152Z,13.50
2019-05-26T02:46:28.349Z,14.18
2019-05-26T02:48:56.791Z,13.03
2019-05-26T02:51:24.994Z,15.20
2019-05-26T02:53:53.186Z,14.83
2019-05-26T02:56:21.391Z,12.70
2019-05-26T02:58:49.581Z,14.38
2019-05-26T03:01:17.791Z,12.95
2019-05-26T03:03:46.745Z,12.60
2019-05-26T03:06:15.135Z,13.72
2019-05-26T03:08:43.993Z,12.25
2019-05-26T03:11:12.556Z,13.88
2019-05-26T03:13:40.757Z,13.30
2019-05-26T03:16:09.623Z,11.95
2019-05-26T03:18:37.847Z,14.13
2019-05-26T03:21:06.021Z,15.70
2019-05-26T03:23:34.274Z,12.40
2019-05-26T03:26:02.526Z,13.25
2019-05-26T03:28:30.738Z,15.23
2019-05-26T03:30:59.498Z,14.18
2019-05-26T03:33:27.698Z,13.70
2019-05-26T03:35:55.893Z,12.82
2019-05-26T03:38:24.100Z,14.23
2019-05-26T03:40:52.296Z,14.28
2019-05-26T03:43:20.497Z,16.12
2019-05-26T03:46:04.125Z,16.20
2019-05-26T03:48:32.328Z,14.05
2019-05-26T03:51:00.548Z,12.85
2019-05-26T03:53:29.992Z,13.60
2019-05-26T03:55:58.231Z,12.67
2019-05-26T03:58:26.502Z,11.85
2019-05-26T04:00:54.693Z,11.50
2019-05-26T04:03:22.998Z,17.15
2019-05-26T04:05:51.176Z,14.60
2019-05-26T04:08:19.380Z,15.05
2019-05-26T04:10:47.573Z,12.98
2019-05-26T04:13:15.772Z,17.45
2019-05-26T04:15:44.555Z,12.37
2019-05-26T04:18:14.786Z,18.52
2019-05-26T04:20:45.760Z,11.65
2019-05-26T04:23:14.378Z,12.03
2019-05-26T04:25:44.146Z,12.18
2019-05-26T04:28:12.354Z,11.83
2019-05-26T04:30:40.552Z,11.75
2019-05-26T04:33:08.753Z,9.83
2019-05-26T04:35:37.736Z,13.55
2019-05-26T04:38:05.935Z,13.20
2019-05-26T04:40:34.205Z,14.18
2019-05-26T04:43:02.409Z,10.58
2019-05-26T04:45:30.589Z,13.22
2019-05-26T04:47:58.801Z,13.10
2019-05-26T04:50:26.998Z,11.30
2019-05-26T04:53:06.224Z,13.53
2019-05-26T04:55:25.702Z,10.20
2019-05-26T04:57:54.371Z,14.07
2019-05-26T05:00:22.566Z,12.73
2019-05-26T05:02:50.858Z,14.07
2019-05-26T05:05:19.617Z,10.30
2019-05-26T05:07:47.821Z,12.43
2019-05-26T05:10:16.013Z,10.88
2019-05-26T05:12:44.225Z,12.78
2019-05-26T05:15:12.693Z,12.93
2019-05-26T05:17:40.903Z,14.15
2019-05-26T05:20:09.097Z,13.70
2019-05-26T05:22:37.297Z,13.08
2019-05-26T05:25:14.223Z,13.72
2019-05-26T05:27:38.584Z,9.63
2019-05-26T05:30:08.535Z,12.35
2019-05-26T05:32:37.003Z,11.43
2019-05-26T05:35:08.270Z,11.68
2019-05-26T05:37:36.535Z,11.18
2019-05-26T05:40:06.960Z,9.55
2019-05-26T05:45:03.998Z,12.88
2019-05-26T05:47:32.195Z,12.63
2019-05-26T05:50:00.683Z,12.75
2019-05-26T05:52:29.649Z,13.32
2019-05-26T05:54:57.855Z,12.65
2019-05-26T05:57:26.063Z,13.78
2019-05-26T05:59:54.264Z,12.70
2019-05-26T06:02:22.461Z,12.45
2019-05-26T06:04:50.677Z,12.40
2019-05-26T06:07:19.655Z,13.80
2019-05-26T06:09:47.864Z,12.65
2019-05-26T06:12:16.128Z,14.15
2019-05-26T06:14:44.331Z,14.35
2019-05-26T06:17:12.531Z,14.30
2019-05-26T06:19:40.775Z,13.62
2019-05-26T06:22:08.978Z,14.60
2019-05-26T06:24:37.228Z,17.70
2019-05-26T06:27:05.423Z,16.42
2019-05-26T06:29:33.829Z,16.05
2019-05-26T06:32:02.395Z,14.50
2019-05-26T06:34:30.742Z,13.72
2019-05-26T06:36:59.516Z,14.87
2019-05-26T06:39:27.729Z,14.75
2019-05-26T06:41:58.285Z,16.57
2019-05-26T06:44:26.491Z,16.27
2019-05-26T06:46:54.691Z,13.18
2019-05-26T06:49:22.908Z,16.25
2019-05-26T06:51:51.120Z,15.48
2019-05-26T06:54:19.336Z,16.70
2019-05-26T06:56:47.528Z,14.13
2019-05-26T06:59:15.744Z,18.75
2019-05-26T07:01:43.939Z,17.17
2019-05-26T07:04:12.150Z,16.80
2019-05-26T07:06:40.362Z,17.12
2019-05-26T07:09:08.840Z,19.25
2019-05-26T07:11:51.713Z,20.72
2019-05-26T07:14:07.105Z,18.45
2019-05-26T07:16:38.395Z,24.75
2019-05-26T07:19:05.243Z,22.27
2019-05-26T07:21:33.443Z,22.07
2019-05-26T07:24:01.654Z,29.15
2019-05-26T07:26:29.864Z,30.30
2019-05-26T07:28:58.082Z,29.92
2019-05-26T07:31:26.280Z,28.00
2019-05-26T07:33:54.490Z,26.73
2019-05-26T07:36:22.686Z,27.93
2019-05-26T07:38:51.139Z,28.35
2019-05-26T07:41:19.366Z,27.37
2019-05-26T07:43:47.569Z,23.45
2019-05-26T07:46:15.779Z,28.75
2019-05-26T07:48:43.981Z,27.75
2019-05-26T07:51:12.189Z,25.85
2019-05-26T07:53:40.383Z,23.45
2019-05-26T07:56:08.594Z,22.22
2019-05-26T07:58:36.808Z,21.60
2019-05-26T08:03:47.021Z,21.07
2019-05-26T08:09:43.629Z,21.87
2019-05-26T08:12:25.008Z,17.85
2019-05-26T08:14:41.771Z,17.85
2019-05-26T08:17:09.976Z,18.25
2019-05-26T08:19:38.965Z,21.68
2019-05-26T08:22:07.172Z,20.00
2019-05-26T08:24:35.382Z,20.17
2019-05-26T08:27:03.652Z,19.50
2019-05-26T08:29:32.903Z,18.37
2019-05-26T08:32:01.106Z,17.73
2019-05-26T08:34:29.308Z,16.55
2019-05-26T08:36:57.527Z,16.27
2019-05-26T08:39:25.733Z,16.40
2019-05-26T08:41:54.715Z,19.82
2019-05-26T08:44:22.921Z,16.57
2019-05-26T08:46:51.138Z,17.35
2019-05-26T08:49:19.342Z,17.55
2019-05-26T08:51:47.554Z,18.25
2019-05-26T08:54:15.790Z,17.62
2019-05-26T08:56:43.999Z,17.90
2019-05-26T08:59:12.667Z,18.98
2019-05-26T09:01:40.951Z,20.72
2019-05-26T09:04:09.169Z,18.20
2019-05-26T09:06:37.367Z,19.35
2019-05-26T09:09:07.207Z,19.90
2019-05-26T09:11:35.429Z,19.07
2019-05-26T09:14:03.627Z,19.42
2019-05-26T09:16:31.842Z,18.57
2019-05-26T09:19:00.055Z,14.58
2019-05-26T09:21:28.270Z,14.28
2019-05-26T09:23:56.943Z,14.33
2019-05-26T09:26:25.628Z,16.05
2019-05-26T09:28:54.406Z,14.05
2019-05-26T09:31:23.294Z,14.58
2019-05-26T09:33:51.491Z,15.00
2019-05-26T09:36:19.744Z,14.47
2019-05-26T09:38:47.948Z,14.05
2019-05-26T09:41:16.167Z,13.50
2019-05-26T09:43:44.372Z,15.95
2019-05-26T09:46:12.659Z,14.10
2019-05-26T09:48:40.874Z,13.55
2019-05-26T09:51:09.876Z,14.58
2019-05-26T09:53:38.808Z,12.23
2019-05-26T09:56:07.116Z,13.62
2019-05-26T09:58:37.781Z,15.13
2019-05-26T10:01:05.997Z,12.80
2019-05-26T10:03:34.495Z,12.85
2019-05-26T10:06:02.878Z,12.25
2019-05-26T10:08:31.086Z,13.13
2019-05-26T10:10:59.352Z,13.80
2019-05-26T10:13:31.679Z,9.83
2019-05-26T10:18:25.358Z,11.60
2019-05-26T10:20:53.571Z,11.45
2019-05-26T10:23:21.762Z,10.88
2019-05-26T10:25:49.999Z,10.85
2019-05-26T10:28:18.185Z,9.25
2019-05-26T10:30:47.069Z,11.50
2019-05-26T10:33:15.272Z,10.80
2019-05-26T10:35:43.825Z,12.55
2019-05-26T10:38:12.741Z,12.33
2019-05-26T10:40:42.506Z,10.63
2019-05-26T10:43:10.717Z,8.68
2019-05-26T10:45:39.532Z,9.60
2019-05-26T10:48:07.826Z,10.80
2019-05-26T10:50:36.021Z,9.90
2019-05-26T10:53:04.233Z,10.82
2019-05-26T10:55:32.421Z,9.70
2019-05-26T10:58:00.641Z,9.53
2019-05-26T11:00:28.839Z,10.82
2019-05-26T11:02:57.053Z,9.35
2019-05-26T11:05:25.531Z,9.85
2019-05-26T11:07:53.729Z,9.45
2019-05-26T11:10:21.927Z,9.83
2019-05-26T11:12:50.134Z,8.48
2019-05-26T11:15:19.030Z,10.25
2019-05-26T11:17:47.978Z,10.63
2019-05-26T11:20:17.807Z,10.30
2019-05-26T11:22:46.026Z,10.28
2019-05-26T11:25:15.088Z,8.05
2019-05-26T11:27:43.317Z,9.08
2019-05-26T11:30:12.528Z,7.90
2019-05-26T11:32:40.735Z,9.08
2019-05-26T11:35:08.925Z,8.20
2019-05-26T11:37:37.135Z,8.83
2019-05-26T11:40:06.570Z,8.30
2019-05-26T11:42:34.772Z,7.40
2019-05-26T11:45:04.504Z,6.60
2019-05-26T11:47:33.381Z,6.33
2019-05-26T11:50:01.590Z,10.50
2019-05-26T11:52:29.794Z,8.65
2019-05-26T11:54:58.000Z,7.92
2019-05-26T11:57:26.209Z,9.38
2019-05-26T11:59:54.416Z,7.40
2019-05-26T12:02:22.614Z,7.55
2019-05-26T12:04:50.818Z,6.12
2019-05-26T12:07:19.010Z,6.45
2019-05-26T12:09:47.207Z,5.08
2019-05-26T12:12:15.415Z,6.37
2019-05-26T12:14:44.376Z,5.22
2019-05-26T12:17:12.585Z,6.15
2019-05-26T12:19:40.782Z,6.40
2019-05-26T12:22:08.987Z,4.03
2019-05-26T12:24:37.755Z,5.85
2019-05-26T12:27:05.966Z,7.33
2019-05-26T12:29:34.158Z,6.75
2019-05-26T12:32:02.374Z,4.58
2019-05-26T12:34:30.592Z,6.17
2019-05-26T12:36:58.820Z,4.70
2019-05-26T12:39:27.007Z,6.37
2019-05-26T12:41:55.233Z,5.45
2019-05-26T12:44:24.514Z,5.45
2019-05-26T12:46:53.281Z,4.93
2019-05-26T12:49:21.493Z,6.15
2019-05-26T12:51:50.463Z,5.85
2019-05-26T12:54:18.660Z,5.67
2019-05-26T12:56:46.854Z,5.80
2019-05-26T12:59:15.634Z,4.78
2019-05-26T13:01:44.298Z,6.08
2019-05-26T13:04:13.175Z,5.65
2019-05-26T13:06:41.932Z,5.47
2019-05-26T13:09:11.706Z,5.78
2019-05-26T13:11:39.901Z,7.22
2019-05-26T13:14:08.110Z,8.08
2019-05-26T13:16:36.381Z,3.95
2019-05-26T13:19:05.263Z,4.55
2019-05-26T13:21:33.455Z,3.42
2019-05-26T13:24:01.669Z,3.95
2019-05-26T13:26:30.148Z,4.72
2019-05-26T13:28:59.692Z,4.50
2019-05-26T13:31:27.886Z,4.05
2019-05-26T13:33:56.085Z,5.00
2019-05-26T13:36:24.347Z,3.02
2019-05-26T13:38:53.317Z,3.70
2019-05-26T13:41:21.541Z,4.30
2019-05-26T13:43:50.418Z,4.37
2019-05-26T13:46:19.221Z,5.22
2019-05-26T13:48:47.398Z,3.62
2019-05-26T13:51:16.157Z,4.25
2019-05-26T13:53:44.364Z,4.30
2019-05-26T13:56:12.555Z,3.08
2019-05-26T13:58:40.763Z,3.30
2019-05-26T14:01:08.962Z,2.77
2019-05-26T14:03:37.482Z,3.75
2019-05-26T14:06:05.734Z,3.35
2019-05-26T14:08:33.914Z,5.85
2019-05-26T14:11:02.101Z,3.22
2019-05-26T14:13:30.975Z,4.45
2019-05-26T14:15:59.738Z,3.85
2019-05-26T14:18:28.318Z,6.62
2019-05-26T14:20:56.509Z,3.87
2019-05-26T14:23:24.712Z,4.17
2019-05-26T14:25:52.908Z,3.52
2019-05-26T14:28:21.114Z,3.50
2019-05-26T14:30:49.304Z,5.12
2019-05-26T14:33:17.574Z,2.90
2019-05-26T14:35:47.245Z,4.35
2019-05-26T14:38:15.769Z,4.62
2019-05-26T14:40:43.969Z,3.50
2019-05-26T14:43:12.191Z,2.50
2019-05-26T14:45:52.905Z,3.65
2019-05-26T14:48:10.863Z,3.92
2019-05-26T14:50:40.856Z,3.58
2019-05-26T14:53:08.985Z,3.33
2019-05-26T14:55:37.198Z,3.10
2019-05-26T14:58:14.866Z,4.22
2019-05-26T15:00:36.118Z,5.50
2019-05-26T15:03:04.524Z,3.95
2019-05-26T15:05:32.884Z,3.92
2019-05-26T15:08:02.251Z,3.35
2019-05-26T15:10:31.221Z,2.63
2019-05-26T15:12:59.413Z,3.00
2019-05-26T15:15:27.715Z,3.77
2019-05-26T15:17:55.907Z,6.35
2019-05-26T15:20:24.112Z,4.33
2019-05-26T15:22:52.328Z,4.22
2019-05-26T15:25:21.094Z,3.17
2019-05-26T15:27:49.296Z,4.00
2019-05-26T15:30:17.671Z,5.58
2019-05-26T15:32:46.335Z,3.83
2019-05-26T15:35:14.541Z,4.62
2019-05-26T15:37:42.810Z,2.95
2019-05-26T15:40:11.017Z,4.08
2019-05-26T15:42:39.230Z,3.35
2019-05-26T15:45:07.716Z,5.30
2019-05-26T15:47:35.909Z,3.00
2019-05-26T15:50:06.720Z,3.22
2019-05-26T15:52:34.918Z,3.62
2019-05-26T15:55:03.129Z,3.58
2019-05-26T15:57:31.468Z,5.00
2019-05-26T15:59:59.912Z,3.45
2019-05-26T16:02:28.104Z,3.00
2019-05-26T16:04:58.901Z,6.10
2019-05-26T16:07:26.826Z,8.18
2019-05-26T16:09:55.098Z,5.95
2019-05-26T16:12:23.293Z,5.53
2019-05-26T16:14:51.509Z,3.22
2019-05-26T16:17:20.268Z,3.27
2019-05-26T16:19:48.470Z,4.58
2019-05-26T16:22:16.665Z,3.30
2019-05-26T16:24:44.872Z,7.17
2019-05-26T16:27:19.334Z,3.52
2019-05-26T16:29:46.385Z,2.83
2019-05-26T16:32:12.924Z,3.20
2019-05-26T16:34:41.140Z,2.98
2019-05-26T16:37:09.340Z,5.45
2019-05-26T16:39:37.808Z,3.12
2019-05-26T16:42:06.038Z,5.83
2019-05-26T16:44:34.236Z,3.98
2019-05-26T16:47:03.080Z,4.10
2019-05-26T16:49:31.531Z,2.98
2019-05-26T16:52:00.298Z,2.95
2019-05-26T16:54:28.505Z,3.00
2019-05-26T16:56:56.707Z,2.25
2019-05-26T16:59:24.903Z,4.47
2019-05-26T17:01:53.110Z,2.42
2019-05-26T17:04:21.314Z,1.98
2019-05-26T17:06:49.690Z,2.65
2019-05-26T17:09:18.371Z,3.12
2019-05-26T17:11:46.577Z,8.58
2019-05-26T17:14:15.346Z,11.55
2019-05-26T17:16:44.020Z,4.42
2019-05-26T17:19:12.236Z,5.47
2019-05-26T17:21:45.577Z,9.45
2019-05-26T17:24:12.539Z,7.50
2019-05-26T17:26:40.744Z,5.10
2019-05-26T17:29:09.408Z,5.95
2019-05-26T17:31:37.610Z,6.70
2019-05-26T17:34:05.810Z,3.72
2019-05-26T17:36:34.590Z,5.60
2019-05-26T17:39:02.858Z,7.33
2019-05-26T17:41:31.051Z,5.03
2019-05-26T17:47:30.665Z,3.80
2019-05-26T17:49:58.024Z,4.12
2019-05-26T17:52:26.222Z,3.60
2019-05-26T17:54:54.418Z,3.25
2019-05-26T17:57:22.626Z,13.25
2019-05-26T17:59:50.816Z,4.00
2019-05-26T18:02:19.882Z,5.15
2019-05-26T18:04:48.076Z,3.55
2019-05-26T18:07:16.283Z,3.95
2019-05-26T18:09:44.844Z,4.92
2019-05-26T18:12:13.237Z,3.08
2019-05-26T18:14:41.806Z,4.05
2019-05-26T18:17:10.641Z,5.95
2019-05-26T18:19:41.282Z,4.28
2019-05-26T18:22:13.374Z,3.55
2019-05-26T18:24:53.143Z,6.28
2019-05-26T18:29:39.409Z,3.90
2019-05-26T18:32:07.641Z,4.58
2019-05-26T18:34:36.096Z,3.52
2019-05-26T18:37:04.371Z,4.00
2019-05-26T18:39:32.853Z,4.22
2019-05-26T18:42:02.510Z,4.83
2019-05-26T18:44:30.699Z,3.98
2019-05-26T18:46:58.966Z,5.72
2019-05-26T18:49:27.152Z,3.98
2019-05-26T18:51:57.760Z,4.75
2019-05-26T18:54:26.208Z,5.50
2019-05-26T18:56:54.429Z,6.05
2019-05-26T18:59:22.626Z,6.72
2019-05-26T19:01:50.829Z,3.90
2019-05-26T19:04:19.037Z,6.90
2019-05-26T19:06:47.243Z,4.62
2019-05-26T19:09:15.441Z,4.17
2019-05-26T19:11:44.215Z,4.22
2019-05-26T19:14:12.405Z,5.25
2019-05-26T19:16:41.187Z,4.10
2019-05-26T19:19:09.385Z,3.90
2019-05-26T19:21:37.618Z,4.17
2019-05-26T19:24:05.814Z,4.53
2019-05-26T19:26:34.022Z,4.70
2019-05-26T19:29:05.049Z,6.05
2019-05-26T19:31:33.607Z,5.62
2019-05-26T19:34:01.807Z,5.28
2019-05-26T19:36:30.014Z,5.90
2019-05-26T19:38:58.211Z,5.30
2019-05-26T19:41:26.415Z,4.28
2019-05-26T19:43:54.609Z,6.00
2019-05-26T19:46:22.814Z,6.15
2019-05-26T19:48:51.095Z,5.12
2019-05-26T19:51:19.304Z,4.90
2019-05-26T19:53:47.505Z,7.58
2019-05-26T19:56:15.705Z,7.67
2019-05-26T19:58:43.901Z,5.67
2019-05-26T20:01:13.999Z,6.37
2019-05-26T20:03:42.482Z,6.67
2019-05-26T20:06:10.684Z,5.08
2019-05-26T20:08:38.900Z,5.72
2019-05-26T20:11:07.112Z,6.95
2019-05-26T20:13:35.321Z,4.60
2019-05-26T20:16:03.581Z,7.05
2019-05-26T20:18:33.367Z,7.58
2019-05-26T20:23:49.348Z,5.95
2019-05-26T20:26:17.541Z,5.53
2019-05-26T20:28:45.760Z,7.85
2019-05-26T20:31:13.996Z,5.35
2019-05-26T20:33:42.745Z,5.60
2019-05-26T20:36:10.935Z,5.83
2019-05-26T20:38:39.314Z,6.50
2019-05-26T20:41:07.509Z,5.65
2019-05-26T20:43:35.751Z,6.58
2019-05-26T20:46:03.937Z,6.83
2019-05-26T20:48:32.142Z,5.42
2019-05-26T20:51:00.346Z,6.35
2019-05-26T20:53:28.546Z,7.37
2019-05-26T20:55:56.811Z,4.80
2019-05-26T20:58:26.157Z,5.95
2019-05-26T21:00:54.355Z,10.10
2019-05-26T21:03:22.580Z,6.37
2019-05-26T21:05:50.840Z,4.62
2019-05-26T21:08:19.050Z,5.65
2019-05-26T21:10:47.716Z,9.63
2019-05-26T21:13:17.390Z,10.23
2019-05-26T21:15:45.586Z,5.35
2019-05-26T21:18:13.847Z,8.63
2019-05-26T21:20:43.839Z,7.72
2019-05-26T21:23:12.024Z,5.08
2019-05-26T21:25:40.231Z,5.70
2019-05-26T21:28:08.430Z,4.87
2019-05-26T21:30:36.658Z,5.15
2019-05-26T21:33:05.023Z,4.83
2019-05-26T21:35:35.878Z,6.47
2019-05-26T21:38:04.075Z,5.40
2019-05-26T21:40:32.773Z,5.62
2019-05-26T21:43:00.968Z,5.45
2019-05-26T21:45:29.434Z,6.25
2019-05-26T21:47:57.742Z,6.05
2019-05-26T21:50:25.945Z,4.55
2019-05-26T21:52:54.154Z,4.83
2019-05-26T21:55:22.351Z,5.25
2019-05-26T21:57:51.024Z,6.37
2019-05-26T22:00:23.708Z,5.45
2019-05-26T22:02:52.687Z,6.40
2019-05-26T22:05:20.876Z,5.55
2019-05-26T22:07:49.077Z,7.10
2019-05-26T22:10:17.273Z,5.45
2019-05-26T22:12:45.476Z,8.08
2019-05-26T22:15:15.306Z,5.58
2019-05-26T22:17:43.499Z,8.90
2019-05-26T22:20:11.782Z,6.58
2019-05-26T22:22:39.971Z,5.55
2019-05-26T22:25:08.178Z,7.72
2019-05-26T22:27:36.372Z,6.42
2019-05-26T22:30:08.387Z,5.22
2019-05-26T22:32:36.912Z,8.50
2019-05-26T22:35:08.126Z,5.87
2019-05-26T22:37:36.314Z,6.90
2019-05-26T22:40:06.520Z,8.58
2019-05-26T22:42:34.722Z,5.70
2019-05-26T22:45:03.747Z,6.47
2019-05-26T22:47:32.155Z,7.97
2019-05-26T22:50:00.365Z,6.00
2019-05-26T22:52:28.558Z,6.45
2019-05-26T22:54:56.760Z,5.60
2019-05-26T22:57:24.949Z,6.42
2019-05-26T22:59:53.150Z,5.90
2019-05-26T23:02:22.691Z,6.55
2019-05-26T23:04:50.896Z,6.20
2019-05-26T23:07:19.086Z,5.75
2019-05-26T23:09:47.293Z,5.85
2019-05-26T23:12:16.522Z,6.37
2019-05-26T23:14:44.728Z,7.37
2019-05-26T23:17:12.927Z,6.03
2019-05-26T23:19:41.133Z,6.83
2019-05-26T23:22:09.328Z,7.08
2019-05-26T23:24:37.533Z,7.15
2019-05-26T23:27:05.808Z,7.35
2019-05-26T23:29:34.008Z,6.47
2019-05-26T23:32:03.663Z,6.37
2019-05-26T23:34:31.945Z,5.10
2019-05-26T23:37:00.136Z,7.67
2019-05-26T23:39:28.339Z,5.78
2019-05-26T23:41:56.524Z,6.70
2019-05-26T23:44:24.724Z,6.28
2019-05-26T23:46:52.913Z,6.95
2019-05-26T23:49:21.114Z,8.78
2019-05-26T23:51:49.306Z,5.12
2019-05-26T23:54:17.512Z,6.87
2019-05-26T23:56:46.479Z,6.67
2019-05-26T23:59:14.761Z,5.97
